Time;durP1;ratioP1;P1;durP2;ratioP2;P2;SDS_P1;SDS_P2;PMS_P1;PMS_P2;Temp;Humidity;BMP_temperature;BMP_pressure;BME280_temperature;BME280_humidity;BME280_pressure;Samples;Min_cycle;Max_cycle;Signal;HPM_P1;HPM_P2
2021/12/11 00:02:17;;;;;;;9.05;6.93;;;6.00;99.90;;;;;;4953351;29;20405;-70
2021/12/11 00:04:45;;;;;;;7.53;6.82;;;6.10;99.90;;;;;;4947285;29;20051;-70
2021/12/11 00:07:15;;;;;;;9.93;7.05;;;6.00;99.90;;;;;;4953601;29;20098;-69
2021/12/11 00:09:42;;;;;;;7.97;6.43;;;6.10;99.90;;;;;;4952829;29;20042;-69
2021/12/11 00:12:22;;;;;;;8.32;7.22;;;6.20;99.90;;;;;;4953603;28;20115;-70
2021/12/11 00:15:04;;;;;;;7.93;7.15;;;6.20;99.90;;;;;;4953464;28;20027;-68
2021/12/11 00:17:33;;;;;;;8.23;6.97;;;6.20;99.90;;;;;;4954095;28;20429;-70
2021/12/11 00:20:00;;;;;;;6.57;5.88;;;6.30;99.90;;;;;;4951726;29;20039;-67
2021/12/11 00:22:29;;;;;;;11.13;6.18;;;6.30;99.90;;;;;;4952885;28;20461;-70
2021/12/11 00:25:09;;;;;;;7.68;6.10;;;6.40;99.90;;;;;;4949491;28;20114;-69
2021/12/11 00:27:38;;;;;;;6.55;5.93;;;6.30;99.90;;;;;;4968266;28;20019;-70
2021/12/11 00:30:10;;;;;;;5.65;4.97;;;6.30;99.90;;;;;;4951995;28;20438;-70
2021/12/11 00:32:37;;;;;;;7.03;5.60;;;6.30;99.90;;;;;;4951807;28;20066;-70
2021/12/11 00:35:13;;;;;;;12.73;6.40;;;6.30;99.90;;;;;;4948535;28;20078;-70
2021/12/11 00:37:38;;;;;;;6.50;5.88;;;6.30;99.90;;;;;;4952659;28;20027;-69
2021/12/11 00:40:19;;;;;;;7.93;5.93;;;6.30;99.90;;;;;;4948876;28;20449;-70
2021/12/11 00:42:50;;;;;;;7.15;5.65;;;6.30;99.90;;;;;;4952436;28;20115;-71
2021/12/11 00:45:20;;;;;;;8.23;6.05;;;6.20;99.90;;;;;;4945391;29;20028;-68
2021/12/11 00:48:00;;;;;;;7.00;6.25;;;6.20;99.90;;;;;;4952856;28;20100;-69
2021/12/11 00:50:30;;;;;;;7.55;6.85;;;6.20;99.90;;;;;;4952824;28;20509;-70
2021/12/11 00:53:05;;;;;;;7.38;6.60;;;6.20;99.90;;;;;;4950727;28;20470;-70
2021/12/11 00:55:37;;;;;;;7.57;5.93;;;6.10;99.90;;;;;;4945105;28;20034;-69
2021/12/11 00:58:17;;;;;;;7.80;6.47;;;6.10;99.90;;;;;;4950697;28;20039;-70
2021/12/11 01:01:08;;;;;;;9.32;8.05;;;6.10;99.90;;;;;;4951902;28;20023;-69
2021/12/11 01:03:48;;;;;;;6.10;5.47;;;6.10;99.90;;;;;;4950359;28;20027;-71
2021/12/11 01:06:21;;;;;;;8.95;8.02;;;6.20;99.90;;;;;;4949728;28;20133;-70
2021/12/11 01:08:55;;;;;;;6.97;6.28;;;6.10;99.90;;;;;;4950297;28;20029;-69
2021/12/11 01:11:24;;;;;;;5.68;5.18;;;6.00;99.90;;;;;;4949915;28;20067;-71
2021/12/11 01:14:04;;;;;;;6.10;5.50;;;5.90;99.90;;;;;;4966061;28;20114;-70
2021/12/11 01:16:30;;;;;;;4.70;4.30;;;5.90;99.90;;;;;;4951770;28;20035;-71
2021/12/11 01:19:00;;;;;;;6.40;5.07;;;6.00;99.90;;;;;;4950777;28;20078;-69
2021/12/11 01:21:44;;;;;;;6.20;5.13;;;6.00;99.90;;;;;;4951405;28;20027;-71
2021/12/11 01:27:04;;;;;;;5.05;4.35;;;6.10;99.90;;;;;;4951434;28;20069;-70
2021/12/11 01:29:32;;;;;;;5.63;4.47;;;6.10;99.90;;;;;;4951493;28;20023;-70
2021/12/11 01:31:59;;;;;;;5.07;4.55;;;6.20;99.90;;;;;;4950856;28;20111;-69
2021/12/11 01:34:27;;;;;;;5.00;4.28;;;6.20;99.90;;;;;;4950199;28;20078;-70
2021/12/11 01:36:53;;;;;;;20.42;5.97;;;6.10;99.90;;;;;;4949325;28;20035;-69
2021/12/11 01:39:25;;;;;;;5.15;4.65;;;6.10;99.90;;;;;;4950540;28;20030;-70
2021/12/11 01:41:53;;;;;;;4.80;4.20;;;6.10;99.90;;;;;;4945204;28;20122;-68
2021/12/11 01:44:29;;;;;;;7.07;4.63;;;6.10;99.90;;;;;;4948044;28;20090;-70
2021/12/11 01:47:05;;;;;;;5.10;4.60;;;6.30;99.90;;;;;;4951665;28;20192;-70
2021/12/11 01:49:33;;;;;;;6.10;4.63;;;6.40;99.90;;;;;;4951141;28;20047;-70
2021/12/11 01:52:07;;;;;;;5.65;5.05;;;6.40;99.90;;;;;;4947635;28;20501;-69
2021/12/11 01:54:37;;;;;;;8.52;5.90;;;6.50;99.90;;;;;;4945205;28;20038;-70
2021/12/11 01:57:11;;;;;;;6.63;4.43;;;6.50;99.90;;;;;;4942360;28;20031;-69
2021/12/11 01:59:40;;;;;;;7.28;4.97;;;6.60;99.90;;;;;;4945097;28;20367;-71
2021/12/11 02:02:15;;;;;;;6.55;5.75;;;6.60;99.90;;;;;;4950491;28;20046;-70
2021/12/11 02:04:48;;;;;;;5.65;4.88;;;6.60;99.90;;;;;;4947936;29;20166;-69
2021/12/11 02:07:20;;;;;;;8.32;7.28;;;6.40;99.90;;;;;;4948189;28;20686;-70
2021/12/11 02:09:55;;;;;;;6.80;6.03;;;6.40;99.90;;;;;;4949579;28;20023;-70
2021/12/11 02:12:32;;;;;;;7.13;6.25;;;6.30;99.90;;;;;;4946882;28;20063;-68
2021/12/11 02:15:01;;;;;;;8.82;5.93;;;6.20;99.90;;;;;;4948872;28;20027;-70
2021/12/11 02:17:33;;;;;;;8.23;4.85;;;6.10;99.90;;;;;;4942253;28;20149;-69
2021/12/11 02:20:00;;;;;;;;;;;6.00;99.90;;;;;;4949885;28;20477;-69
2021/12/11 02:22:30;;;;;;;8.50;6.57;;;5.80;99.90;;;;;;4950398;28;20415;-70
2021/12/11 02:25:00;;;;;;;12.57;6.78;;;5.70;99.90;;;;;;4949495;28;20027;-71
2021/12/11 02:27:55;;;;;;;7.47;5.78;;;5.60;99.90;;;;;;4949675;28;20075;-70
2021/12/11 02:30:36;;;;;;;7.38;6.47;;;5.60;99.90;;;;;;4948998;28;20135;-69
2021/12/11 02:33:06;;;;;;;6.78;5.43;;;5.50;99.90;;;;;;4947832;28;20027;-70
2021/12/11 02:35:52;;;;;;;6.55;5.32;;;5.50;99.90;;;;;;4943909;28;20497;-69
2021/12/11 02:38:24;;;;;;;6.05;5.55;;;5.60;99.90;;;;;;4934103;28;20044;-70
2021/12/11 02:41:04;;;;;;;6.82;5.38;;;5.50;99.90;;;;;;4949683;28;20035;-70
2021/12/11 02:43:42;;;;;;;5.40;4.88;;;5.50;99.90;;;;;;4950281;28;20165;-69
2021/12/11 02:46:32;;;;;;;7.00;4.88;;;5.50;99.90;;;;;;4949779;28;20038;-69
2021/12/11 02:49:10;;;;;;;4.88;4.13;;;5.40;99.90;;;;;;4948655;28;20027;-70
2021/12/11 02:51:45;;;;;;;7.68;5.07;;;5.40;99.90;;;;;;4947379;28;20505;-69
2021/12/11 02:54:31;;;;;;;6.00;5.40;;;5.40;99.90;;;;;;4948701;28;20138;-70
2021/12/11 02:57:01;;;;;;;8.27;6.40;;;5.40;99.90;;;;;;4950788;28;20024;-74
2021/12/11 02:59:30;;;;;;;5.45;4.95;;;5.40;99.90;;;;;;4950860;28;20043;-70
2021/12/11 03:02:08;;;;;;;7.63;5.95;;;5.30;99.90;;;;;;4947237;29;20485;-70
2021/12/11 03:04:38;;;;;;;6.50;5.25;;;5.30;99.90;;;;;;4950319;28;20033;-69
2021/12/11 03:07:11;;;;;;;9.05;5.85;;;5.40;99.90;;;;;;4948126;28;20055;-70
2021/12/11 03:09:42;;;;;;;5.07;3.97;;;5.40;99.90;;;;;;4949269;28;20110;-70
2021/12/11 03:12:11;;;;;;;6.50;4.53;;;5.50;99.90;;;;;;4950530;28;20066;-70
2021/12/11 03:14:37;;;;;;;5.85;4.25;;;5.60;99.90;;;;;;4949998;28;20023;-70
2021/12/11 03:17:04;;;;;;;5.90;5.28;;;5.60;99.90;;;;;;4950135;28;20110;-70
2021/12/11 03:19:33;;;;;;;4.90;4.38;;;5.50;99.90;;;;;;4951296;28;20105;-69
2021/12/11 03:22:01;;;;;;;5.43;4.90;;;5.50;99.90;;;;;;4954110;28;20031;-70
2021/12/11 03:24:30;;;;;;;5.05;4.55;;;5.40;99.90;;;;;;4953546;28;20033;-70
2021/12/11 03:26:57;;;;;;;8.32;7.53;;;5.40;99.90;;;;;;4955558;29;20082;-70
2021/12/11 03:29:23;;;;;;;7.35;5.63;;;5.30;99.90;;;;;;4955015;28;20625;-70
2021/12/11 03:31:49;;;;;;;10.02;7.97;;;5.30;99.90;;;;;;4952832;28;20378;-69
2021/12/11 03:34:20;;;;;;;11.13;7.85;;;5.20;99.90;;;;;;4953587;28;20037;-69
2021/12/11 03:36:47;;;;;;;13.50;9.50;;;5.10;99.90;;;;;;4952435;28;20185;-70
2021/12/11 03:39:38;;;;;;;12.68;8.90;;;5.00;99.90;;;;;;4950492;28;20037;-70
2021/12/11 03:42:13;;;;;;;14.70;11.15;;;5.00;99.90;;;;;;4951365;28;20099;-70
2021/12/11 03:44:40;;;;;;;19.88;12.52;;;4.90;99.90;;;;;;4948478;28;20028;-70
2021/12/11 03:47:10;;;;;;;19.90;13.07;;;4.80;99.90;;;;;;4953509;28;20039;-69
2021/12/11 03:49:36;;;;;;;20.77;16.02;;;4.70;99.90;;;;;;4950996;28;20110;-70
2021/12/11 03:52:06;;;;;;;14.70;11.80;;;4.70;99.90;;;;;;4950414;28;20118;-70
2021/12/11 03:54:34;;;;;;;18.73;14.98;;;4.70;99.90;;;;;;4952718;28;20489;-69
2021/12/11 03:57:00;;;;;;;20.73;11.75;;;4.70;99.90;;;;;;4952032;28;20090;-68
2021/12/11 03:59:26;;;;;;;15.18;10.40;;;4.80;99.90;;;;;;4952580;28;20027;-68
2021/12/11 04:01:57;;;;;;;17.38;12.38;;;4.90;99.90;;;;;;4951819;28;20545;-70
2021/12/11 04:04:30;;;;;;;13.80;10.98;;;4.90;99.90;;;;;;4950461;28;20027;-69
2021/12/11 04:06:57;;;;;;;14.55;9.98;;;4.90;99.90;;;;;;4949418;28;20497;-70
2021/12/11 04:09:25;;;;;;;17.98;11.00;;;5.00;99.90;;;;;;4950137;28;20038;-70
2021/12/11 04:11:53;;;;;;;15.15;10.15;;;5.00;99.90;;;;;;4952249;28;20106;-70
2021/12/11 04:14:25;;;;;;;11.48;9.45;;;5.10;99.90;;;;;;4952428;28;20101;-68
2021/12/11 04:16:52;;;;;;;11.60;9.88;;;5.20;99.90;;;;;;4951626;28;20165;-68
2021/12/11 04:19:19;;;;;;;12.10;8.43;;;5.20;99.90;;;;;;4951692;28;20107;-69
2021/12/11 04:21:46;;;;;;;9.38;8.10;;;5.30;99.90;;;;;;4953007;28;20027;-68
2021/12/11 04:24:17;;;;;;;10.40;7.85;;;5.40;99.90;;;;;;4952170;28;20031;-69
2021/12/11 04:26:45;;;;;;;12.02;9.07;;;5.60;99.90;;;;;;4951764;28;20039;-67
2021/12/11 04:29:11;;;;;;;11.63;9.05;;;5.50;99.90;;;;;;4950800;28;20416;-69
2021/12/11 04:31:42;;;;;;;11.27;8.82;;;5.50;99.90;;;;;;4952056;28;20035;-70
2021/12/11 04:34:12;;;;;;;11.98;10.23;;;5.60;99.90;;;;;;4949819;28;20058;-69
2021/12/11 04:36:42;;;;;;;17.10;9.38;;;5.50;99.90;;;;;;4944797;28;20524;-69
2021/12/11 04:39:10;;;;;;;11.50;9.20;;;5.40;99.90;;;;;;4951170;28;20114;-68
2021/12/11 04:41:48;;;;;;;11.02;7.88;;;5.40;99.90;;;;;;4952061;28;20020;-68
2021/12/11 04:44:32;;;;;;;17.73;7.30;;;5.50;99.90;;;;;;4950293;28;20118;-68
2021/12/11 04:46:58;;;;;;;10.75;7.88;;;5.60;99.90;;;;;;4951634;28;20629;-69
2021/12/11 04:49:51;;;;;;;8.43;6.82;;;5.60;99.90;;;;;;4952097;28;20023;-68
2021/12/11 04:52:33;;;;;;;10.32;8.32;;;5.60;99.90;;;;;;4952146;28;20497;-69
2021/12/11 05:11:21;;;;;;;6.35;5.53;;;6.10;99.90;;;;;;4948891;28;20027;-68
2021/12/11 05:13:47;;;;;;;6.90;5.20;;;6.30;99.90;;;;;;4950255;28;20042;-69
2021/12/11 05:16:14;;;;;;;10.43;6.47;;;6.40;99.90;;;;;;4952222;29;20036;-69
2021/12/11 05:18:44;;;;;;;7.65;5.93;;;6.60;99.90;;;;;;4951589;28;20035;-70
2021/12/11 05:21:15;;;;;;;7.72;5.05;;;6.80;99.90;;;;;;4950150;28;20453;-70
2021/12/11 05:23:41;;;;;;;8.68;7.07;;;6.80;99.90;;;;;;4950746;28;20057;-68
2021/12/11 05:26:07;;;;;;;5.95;5.35;;;6.80;99.90;;;;;;4927294;29;20031;-70
2021/12/11 05:28:34;;;;;;;9.52;6.05;;;6.70;99.90;;;;;;4950769;28;20027;-71
2021/12/11 05:31:03;;;;;;;9.48;6.35;;;6.60;99.90;;;;;;4945694;28;20119;-70
2021/12/11 05:33:29;;;;;;;9.43;7.38;;;6.60;99.90;;;;;;4951329;28;20509;-71
2021/12/11 05:35:56;;;;;;;13.63;5.75;;;6.50;99.90;;;;;;4947935;28;20043;-69
2021/12/11 05:38:23;;;;;;;7.88;6.32;;;6.50;99.90;;;;;;4949632;28;20050;-70
2021/12/11 05:40:53;;;;;;;8.13;6.97;;;6.50;99.90;;;;;;4949167;28;20035;-70
2021/12/11 05:43:19;;;;;;;13.07;7.65;;;6.60;99.90;;;;;;4949854;28;20114;-70
2021/12/11 05:45:46;;;;;;;9.30;7.18;;;6.50;99.90;;;;;;4949949;28;20054;-71
2021/12/11 05:48:12;;;;;;;11.68;7.55;;;6.40;99.90;;;;;;4951323;28;20031;-72
2021/12/11 05:50:46;;;;;;;8.93;6.55;;;6.30;99.90;;;;;;4945543;28;20035;-69
2021/12/11 05:53:12;;;;;;;10.00;6.82;;;6.30;99.90;;;;;;4949875;28;20035;-71
2021/12/11 05:55:40;;;;;;;12.48;7.60;;;6.30;99.90;;;;;;4949953;28;20031;-69
2021/12/11 05:58:11;;;;;;;9.02;7.25;;;6.20;99.90;;;;;;4947593;28;20052;-70
2021/12/11 06:00:49;;;;;;;10.25;6.20;;;6.20;99.90;;;;;;4946279;28;20086;-70
2021/12/11 06:03:15;;;;;;;9.80;7.63;;;6.20;99.90;;;;;;4950621;28;20367;-71
2021/12/11 06:05:42;;;;;;;10.20;6.68;;;6.30;99.90;;;;;;4951523;29;20081;-71
2021/12/11 06:08:09;;;;;;;8.73;5.82;;;6.20;99.90;;;;;;4948882;28;20031;-71
2021/12/11 06:10:36;;;;;;;6.70;5.50;;;6.20;99.90;;;;;;4950669;28;20031;-71
2021/12/11 06:13:04;;;;;;;8.40;5.93;;;6.30;99.90;;;;;;4949687;28;20027;-69
2021/12/11 06:15:30;;;;;;;9.20;5.75;;;6.60;99.90;;;;;;4950076;28;20464;-69
2021/12/11 06:17:56;;;;;;;9.77;4.47;;;6.60;99.90;;;;;;4951226;28;20027;-70
2021/12/11 06:20:26;;;;;;;10.07;4.90;;;6.80;99.90;;;;;;4951206;29;20027;-70
2021/12/11 06:22:52;;;;;;;3.90;3.08;;;6.90;99.90;;;;;;4950307;28;20016;-71
2021/12/11 06:25:23;;;;;;;4.18;3.65;;;6.90;99.90;;;;;;4950702;28;20109;-71
2021/12/11 06:27:49;;;;;;;4.80;3.92;;;6.90;99.90;;;;;;4948822;28;20190;-71
2021/12/11 06:30:16;;;;;;;5.13;4.30;;;7.10;99.90;;;;;;4950662;28;20076;-72
2021/12/11 06:32:42;;;;;;;6.00;4.82;;;7.00;99.90;;;;;;4951035;28;20027;-70
2021/12/11 06:35:15;;;;;;;6.20;4.82;;;7.00;99.90;;;;;;4949294;28;20035;-70
2021/12/11 06:37:40;;;;;;;5.72;3.78;;;6.80;99.90;;;;;;4940872;28;20035;-71
2021/12/11 06:40:07;;;;;;;5.30;4.70;;;6.80;99.90;;;;;;4949344;28;20027;-70
2021/12/11 06:42:33;;;;;;;4.30;3.67;;;6.80;99.90;;;;;;4947307;28;20034;-70
2021/12/11 06:44:59;;;;;;;6.97;4.20;;;6.90;99.90;;;;;;4945181;28;20477;-70
2021/12/11 06:47:25;;;;;;;3.97;3.35;;;6.80;99.90;;;;;;4949464;28;20031;-71
2021/12/11 06:49:51;;;;;;;7.03;5.15;;;6.90;99.90;;;;;;4947473;28;20609;-71
2021/12/11 06:52:20;;;;;;;7.65;6.70;;;6.80;99.90;;;;;;4948564;28;20027;-70
2021/12/11 06:54:47;;;;;;;10.30;7.32;;;6.80;99.90;;;;;;4945269;28;20031;-69
2021/12/11 06:57:14;;;;;;;6.05;4.78;;;6.80;99.90;;;;;;4954573;29;20460;-70
2021/12/11 06:59:39;;;;;;;6.95;5.78;;;6.80;99.90;;;;;;4953381;28;20039;-70
2021/12/11 07:02:05;;;;;;;5.43;4.15;;;6.80;99.90;;;;;;4952479;28;20421;-69
2021/12/11 07:04:32;;;;;;;5.40;3.75;;;7.10;99.90;;;;;;4953264;28;20023;-71
2021/12/11 07:06:58;;;;;;;7.63;6.25;;;7.10;99.90;;;;;;4954389;28;20066;-71
2021/12/11 07:09:26;;;;;;;6.97;5.13;;;6.90;99.90;;;;;;4952650;28;20100;-71
2021/12/11 07:11:54;;;;;;;6.40;4.90;;;6.90;99.90;;;;;;4953654;28;20058;-68
2021/12/11 07:14:22;;;;;;;5.38;4.55;;;7.10;99.90;;;;;;4954319;28;20549;-72
2021/12/11 07:16:49;;;;;;;7.60;6.00;;;7.20;99.90;;;;;;4954139;28;20396;-66
2021/12/11 07:19:16;;;;;;;4.90;4.38;;;7.30;99.90;;;;;;4976571;28;20414;-65
2021/12/11 07:21:43;;;;;;;4.43;4.03;;;7.10;99.90;;;;;;4954467;29;20066;-64
2021/12/11 07:24:12;;;;;;;5.57;4.40;;;7.30;99.90;;;;;;4954158;28;20023;-66
2021/12/11 07:26:38;;;;;;;6.82;4.22;;;7.20;99.90;;;;;;4954199;28;20031;-65
2021/12/11 07:29:14;;;;;;;6.80;5.25;;;7.60;99.90;;;;;;4951648;28;20209;-67
2021/12/11 07:31:41;;;;;;;7.13;4.78;;;7.60;99.90;;;;;;4954286;28;20019;-66
2021/12/11 07:34:08;;;;;;;5.60;4.35;;;7.60;99.90;;;;;;4954846;28;20035;-66
2021/12/11 07:36:34;;;;;;;4.63;4.00;;;7.50;99.90;;;;;;4952616;28;20170;-65
2021/12/11 07:39:06;;;;;;;8.68;4.90;;;7.50;99.90;;;;;;4952358;28;20050;-64
2021/12/11 07:41:32;;;;;;;4.72;4.07;;;7.40;99.90;;;;;;4949197;28;20577;-65
2021/12/11 07:43:58;;;;;;;6.40;5.10;;;7.70;99.90;;;;;;4950188;28;20140;-65
2021/12/11 07:46:27;;;;;;;5.68;3.45;;;7.60;99.90;;;;;;4952679;28;20110;-65
2021/12/11 07:48:53;;;;;;;5.00;4.25;;;7.70;99.90;;;;;;4948172;28;20040;-67
2021/12/11 07:51:22;;;;;;;9.05;6.45;;;7.60;99.90;;;;;;4945308;28;20055;-66
2021/12/11 07:53:49;;;;;;;7.00;5.25;;;7.40;99.90;;;;;;4945448;28;20478;-67
2021/12/11 07:56:17;;;;;;;10.32;6.65;;;7.20;99.90;;;;;;4948071;28;20568;-66
2021/12/11 07:58:44;;;;;;;5.72;5.10;;;7.10;99.90;;;;;;4949676;28;20568;-68
2021/12/11 08:01:10;;;;;;;10.63;8.10;;;7.30;99.90;;;;;;4945921;28;20042;-67
2021/12/11 08:03:37;;;;;;;9.30;6.50;;;7.20;99.90;;;;;;4948222;28;20106;-65
2021/12/11 08:06:05;;;;;;;8.20;6.15;;;7.10;99.90;;;;;;4953263;28;20046;-66
2021/12/11 08:08:30;;;;;;;8.70;6.70;;;7.10;99.90;;;;;;4951733;28;20035;-68
2021/12/11 08:11:05;;;;;;;8.25;7.28;;;7.10;99.90;;;;;;4953771;28;20027;-67
2021/12/11 08:13:31;;;;;;;9.57;7.55;;;7.10;99.90;;;;;;4937105;29;20054;-69
2021/12/11 08:15:57;;;;;;;8.10;6.10;;;7.00;99.90;;;;;;4953585;28;20043;-66
2021/12/11 08:18:25;;;;;;;7.22;6.32;;;6.90;99.90;;;;;;4953404;28;20030;-67
2021/12/11 08:20:52;;;;;;;10.15;7.47;;;7.00;99.90;;;;;;4953651;28;20024;-67
2021/12/11 08:23:18;;;;;;;12.38;6.68;;;7.00;99.90;;;;;;4953864;28;20042;-69
2021/12/11 08:25:46;;;;;;;13.43;7.78;;;7.00;99.90;;;;;;4949866;28;20058;-66
2021/12/11 08:28:15;;;;;;;10.95;8.07;;;6.90;99.90;;;;;;4950791;28;20027;-67
2021/12/11 08:30:44;;;;;;;12.85;7.80;;;6.90;99.90;;;;;;4952966;29;20054;-67
2021/12/11 08:33:10;;;;;;;8.20;7.38;;;6.80;99.90;;;;;;4951358;28;20027;-66
2021/12/11 08:35:36;;;;;;;13.20;8.52;;;6.90;99.90;;;;;;4950169;28;20110;-67
2021/12/11 08:38:05;;;;;;;11.05;7.25;;;6.80;99.90;;;;;;4948692;28;20553;-66
2021/12/11 08:40:37;;;;;;;12.13;7.88;;;6.90;99.90;;;;;;4950511;28;20032;-67
2021/12/11 08:43:06;;;;;;;11.65;8.40;;;7.00;99.90;;;;;;4944187;29;20103;-67
2021/12/11 08:45:56;;;;;;;7.90;6.32;;;7.10;99.90;;;;;;4943966;28;20035;-68
2021/12/11 08:48:24;;;;;;;9.20;6.22;;;7.20;99.90;;;;;;4949601;28;20082;-67
2021/12/11 08:50:58;;;;;;;9.02;6.20;;;7.60;99.90;;;;;;4949261;28;20125;-65
2021/12/11 08:53:24;;;;;;;10.02;7.55;;;7.30;99.90;;;;;;4950216;28;20481;-68
2021/12/11 08:55:54;;;;;;;8.43;6.07;;;7.30;99.90;;;;;;4950736;28;20126;-67
2021/12/11 08:58:22;;;;;;;8.15;6.32;;;7.20;99.90;;;;;;4952701;28;20511;-66
2021/12/11 09:00:58;;;;;;;10.63;7.28;;;7.40;99.90;;;;;;4952209;28;20027;-67
2021/12/11 09:03:26;;;;;;;11.50;7.43;;;7.20;99.90;;;;;;4952680;29;20041;-71
2021/12/11 09:06:03;;;;;;;11.07;9.25;;;7.20;99.90;;;;;;4975530;28;20035;-68
2021/12/11 09:09:01;;;;;;;13.15;9.38;;;6.90;99.90;;;;;;4951616;29;20034;-66
2021/12/11 09:11:59;;;;;;;15.75;9.25;;;7.00;99.90;;;;;;4940356;29;20043;-67
2021/12/11 09:14:28;;;;;;;13.77;9.10;;;6.80;99.90;;;;;;4936807;28;20085;-66
2021/12/11 09:17:19;;;;;;;10.23;6.80;;;6.90;99.90;;;;;;4950579;28;20035;-65
2021/12/11 09:19:53;;;;;;;12.70;9.40;;;6.80;99.90;;;;;;4950324;29;20027;-67
2021/12/11 09:22:34;;;;;;;14.88;8.25;;;6.80;99.90;;;;;;4952053;28;20059;-68
2021/12/11 09:25:19;;;;;;;13.77;8.70;;;6.80;99.90;;;;;;4948407;29;20445;-66
2021/12/11 09:28:21;;;;;;;11.77;8.52;;;6.70;99.90;;;;;;4952110;28;20019;-66
2021/12/11 09:31:15;;;;;;;14.73;7.40;;;6.70;99.90;;;;;;4945681;29;20051;-70
2021/12/11 09:33:56;;;;;;;12.27;7.45;;;6.70;99.90;;;;;;4952222;29;20049;-64
2021/12/11 09:36:30;;;;;;;14.57;9.55;;;6.90;99.90;;;;;;4950306;29;20041;-69
2021/12/11 09:39:10;;;;;;;7.03;5.40;;;7.00;99.90;;;;;;4951952;28;20113;-66
2021/12/11 09:41:36;;;;;;;11.00;7.80;;;7.10;99.90;;;;;;4951909;28;20117;-66
2021/12/11 09:44:15;;;;;;;10.38;7.70;;;7.20;99.90;;;;;;4952017;29;20111;-67
2021/12/11 09:47:17;;;;;;;13.00;9.18;;;7.00;99.90;;;;;;4950680;28;20015;-66
2021/12/11 09:49:47;;;;;;;13.80;9.90;;;6.70;99.90;;;;;;4951066;28;20027;-66
2021/12/11 09:52:23;;;;;;;9.52;8.35;;;6.60;99.90;;;;;;4951349;28;20035;-68
2021/12/11 09:54:53;;;;;;;12.50;9.73;;;6.70;99.90;;;;;;4950530;29;20082;-67
2021/12/11 09:57:22;;;;;;;12.73;8.48;;;6.60;99.90;;;;;;4950892;29;20027;-66
2021/12/11 09:59:50;;;;;;;13.68;6.97;;;6.60;99.90;;;;;;4951416;28;20128;-66
2021/12/11 10:02:30;;;;;;;14.18;9.00;;;6.80;99.90;;;;;;4951612;28;20110;-66
2021/12/11 10:05:29;;;;;;;9.68;7.47;;;6.80;99.90;;;;;;4951731;28;20035;-68
2021/12/11 10:08:27;;;;;;;10.00;7.03;;;6.90;99.90;;;;;;4952133;28;20784;-66
2021/12/11 10:11:10;;;;;;;11.68;8.20;;;6.80;99.90;;;;;;4951702;28;20027;-70
2021/12/11 10:13:46;;;;;;;9.93;6.75;;;6.80;99.90;;;;;;4951775;28;20027;-68
2021/12/11 10:16:17;;;;;;;10.15;7.13;;;6.70;99.90;;;;;;4950666;28;20079;-66
2021/12/11 10:18:43;;;;;;;12.23;8.20;;;6.80;99.90;;;;;;4950496;29;20095;-66
2021/12/11 10:21:17;;;;;;;13.10;8.05;;;6.80;99.90;;;;;;4950825;28;20114;-66
2021/12/11 10:23:47;;;;;;;14.07;8.57;;;6.90;99.90;;;;;;4971744;28;20035;-65
2021/12/11 10:26:15;;;;;;;10.57;8.32;;;6.80;99.90;;;;;;4950819;28;20450;-66
2021/12/11 10:28:44;;;;;;;11.35;8.07;;;6.80;99.90;;;;;;4952561;28;20461;-66
2021/12/11 10:31:18;;;;;;;10.57;6.97;;;6.90;99.90;;;;;;4957443;29;20126;-68
2021/12/11 10:33:44;;;;;;;10.18;8.55;;;6.90;99.90;;;;;;4955856;28;20106;-72
2021/12/11 10:36:14;;;;;;;10.90;7.72;;;6.90;99.90;;;;;;4953760;28;20085;-70
2021/12/11 10:38:41;;;;;;;10.23;6.45;;;6.80;99.90;;;;;;4949312;28;20023;-66
2021/12/11 10:41:10;;;;;;;13.35;9.82;;;7.00;99.90;;;;;;4955917;28;20035;-70
2021/12/11 10:44:02;;;;;;;11.57;7.03;;;7.00;99.90;;;;;;4954655;28;20028;-69
2021/12/11 10:46:32;;;;;;;10.50;7.95;;;7.00;99.90;;;;;;4951769;28;20047;-67
2021/12/11 10:48:59;;;;;;;9.98;7.68;;;6.80;99.90;;;;;;4958229;28;20382;-66
2021/12/11 10:51:32;;;;;;;9.32;7.40;;;6.90;99.90;;;;;;4956955;28;20029;-72
2021/12/11 10:53:58;;;;;;;9.38;6.55;;;6.90;99.90;;;;;;4954047;28;20027;-67
2021/12/11 10:56:26;;;;;;;9.95;6.53;;;7.00;99.90;;;;;;4955270;28;20396;-70
2021/12/11 10:59:05;;;;;;;8.63;6.65;;;6.90;99.90;;;;;;4953203;28;20027;-67
2021/12/11 11:01:35;;;;;;;14.75;7.65;;;6.90;99.90;;;;;;4955808;28;20485;-67
2021/12/11 11:04:10;;;;;;;8.73;6.70;;;6.90;99.90;;;;;;4953200;28;20082;-69
2021/12/11 11:06:36;;;;;;;10.23;7.28;;;6.90;99.90;;;;;;4957217;28;20480;-68
2021/12/11 11:09:07;;;;;;;10.73;8.55;;;6.90;99.90;;;;;;4958088;28;20023;-66
2021/12/11 11:11:35;;;;;;;12.95;8.98;;;6.90;99.90;;;;;;4956615;29;20405;-65
2021/12/11 11:14:02;;;;;;;10.27;7.53;;;6.90;99.90;;;;;;4953551;29;20031;-69
2021/12/11 11:16:28;;;;;;;8.98;6.93;;;7.00;99.90;;;;;;4956329;28;20102;-71
2021/12/11 11:18:54;;;;;;;8.93;7.07;;;6.90;99.90;;;;;;4957051;28;20450;-68
2021/12/11 11:21:27;;;;;;;8.38;6.68;;;6.90;99.90;;;;;;4956716;28;20031;-66
2021/12/11 11:23:55;;;;;;;11.50;8.43;;;6.90;99.90;;;;;;4955533;28;20035;-65
2021/12/11 11:26:27;;;;;;;7.80;5.35;;;6.80;99.90;;;;;;4957176;28;20027;-69
2021/12/11 11:28:55;;;;;;;11.45;7.80;;;6.90;99.90;;;;;;4956140;28;20113;-67
2021/12/11 11:31:27;;;;;;;16.85;7.38;;;6.90;99.90;;;;;;4956126;28;20039;-69
2021/12/11 11:33:54;;;;;;;11.65;6.85;;;7.00;99.90;;;;;;4955239;28;20393;-70
2021/12/11 11:36:23;;;;;;;6.55;5.72;;;6.90;99.90;;;;;;4954597;28;20038;-69
2021/12/11 11:38:53;;;;;;;11.05;6.88;;;7.00;99.90;;;;;;4953609;28;20545;-66
2021/12/11 11:41:26;;;;;;;8.23;6.32;;;6.90;99.90;;;;;;4953453;28;20075;-66
2021/12/11 11:43:53;;;;;;;15.15;7.65;;;7.00;99.90;;;;;;4952210;28;20031;-66
2021/12/11 11:46:19;;;;;;;9.68;6.65;;;6.90;99.90;;;;;;4952437;28;20033;-66
2021/12/11 11:48:49;;;;;;;7.25;5.40;;;7.00;99.90;;;;;;4953417;28;20042;-69
2021/12/11 11:51:37;;;;;;;10.38;7.35;;;6.90;99.90;;;;;;4953446;28;20115;-67
2021/12/11 11:54:04;;;;;;;9.82;7.05;;;7.00;99.90;;;;;;4950500;28;20027;-71
2021/12/11 11:56:36;;;;;;;9.13;6.72;;;6.90;99.90;;;;;;4953673;28;20954;-67
2021/12/11 11:59:05;;;;;;;11.88;8.00;;;6.90;99.90;;;;;;4949232;28;20043;-72
2021/12/11 12:01:38;;;;;;;9.82;6.57;;;6.90;99.90;;;;;;4953621;29;20114;-66
2021/12/11 12:04:05;;;;;;;9.88;7.57;;;7.00;99.90;;;;;;4945023;28;20027;-68
2021/12/11 12:06:35;;;;;;;12.70;8.45;;;7.00;99.90;;;;;;4954070;28;20422;-66
2021/12/11 12:09:05;;;;;;;11.07;5.95;;;7.00;99.90;;;;;;4950534;28;20038;-71
2021/12/11 12:11:32;;;;;;;9.23;6.32;;;7.00;99.90;;;;;;4954232;28;20031;-69
2021/12/11 12:14:00;;;;;;;8.57;5.70;;;7.10;99.90;;;;;;4954083;28;20023;-65
2021/12/11 12:16:28;;;;;;;11.77;7.18;;;7.10;99.90;;;;;;4952678;28;20047;-67
2021/12/11 12:18:54;;;;;;;10.88;6.80;;;7.10;99.90;;;;;;4953165;28;20587;-67
2021/12/11 12:21:20;;;;;;;9.32;5.72;;;7.10;99.90;;;;;;4951465;28;20045;-70
2021/12/11 12:23:46;;;;;;;9.82;7.40;;;7.10;99.90;;;;;;4953291;28;20054;-69
2021/12/11 12:26:19;;;;;;;9.50;6.93;;;7.00;99.90;;;;;;4953733;28;20401;-69
2021/12/11 12:28:47;;;;;;;14.63;7.85;;;7.10;99.90;;;;;;4952724;28;20485;-67
2021/12/11 12:31:27;;;;;;;8.45;6.65;;;7.10;99.90;;;;;;4953767;28;20057;-68
2021/12/11 12:33:54;;;;;;;14.88;7.47;;;7.10;99.90;;;;;;4953469;28;20141;-65
2021/12/11 12:36:20;;;;;;;7.38;6.25;;;7.10;99.90;;;;;;4953244;28;20557;-73
2021/12/11 12:38:48;;;;;;;10.52;6.95;;;7.00;99.90;;;;;;4953465;28;20031;-72
2021/12/11 12:41:36;;;;;;;11.85;7.38;;;7.10;99.90;;;;;;4954518;28;20027;-66
2021/12/11 12:46:42;;;;;;;12.05;8.45;;;7.10;99.90;;;;;;4952485;28;20031;-67
2021/12/11 12:49:08;;;;;;;14.57;8.82;;;6.90;99.90;;;;;;4948834;28;20038;-68
2021/12/11 12:51:35;;;;;;;12.10;7.45;;;6.80;99.90;;;;;;4951506;28;20027;-67
2021/12/11 12:54:05;;;;;;;11.35;8.05;;;6.80;99.90;;;;;;4949292;28;20027;-71
2021/12/11 12:56:38;;;;;;;11.18;7.65;;;6.80;99.90;;;;;;4952196;28;20027;-66
2021/12/11 12:59:31;;;;;;;7.45;6.22;;;6.90;99.90;;;;;;4946077;28;20034;-67
2021/12/11 13:02:12;;;;;;;10.73;6.93;;;6.90;99.90;;;;;;4951482;28;20075;-66
2021/12/11 13:04:59;;;;;;;12.85;8.15;;;6.90;99.90;;;;;;4951658;29;20542;-67
2021/12/11 13:07:25;;;;;;;11.23;8.38;;;6.80;99.90;;;;;;4951385;28;20411;-66
2021/12/11 13:09:56;;;;;;;12.02;9.38;;;6.90;99.90;;;;;;4951125;28;20070;-67
2021/12/11 13:12:27;;;;;;;10.77;7.68;;;6.90;99.90;;;;;;4952744;28;20027;-67
2021/12/11 13:14:57;;;;;;;11.63;6.80;;;6.80;99.90;;;;;;4952595;28;20537;-66
2021/12/11 13:17:29;;;;;;;12.02;8.70;;;6.80;99.90;;;;;;4950616;29;20042;-67
2021/12/11 13:19:57;;;;;;;;;;;6.80;99.90;;;;;;4952715;28;20045;-66
2021/12/11 13:22:37;;;;;;;10.07;7.68;;;6.80;99.90;;;;;;4952443;28;19961;-68
2021/12/11 13:25:20;;;;;;;7.57;6.57;;;6.70;99.90;;;;;;4948984;28;20027;-70
2021/12/11 13:27:52;;;;;;;13.00;7.38;;;6.70;99.90;;;;;;4948014;28;20029;-65
2021/12/11 13:30:24;;;;;;;9.35;7.10;;;6.70;99.90;;;;;;4950905;28;20051;-66
2021/12/11 13:32:50;;;;;;;14.32;8.68;;;6.80;99.90;;;;;;4951619;28;20486;-65
2021/12/11 13:35:26;;;;;;;13.27;8.95;;;6.70;99.90;;;;;;4951740;28;20027;-65
2021/12/11 13:37:52;;;;;;;12.35;7.97;;;6.70;99.90;;;;;;4952297;28;20027;-66